Time;durP1;ratioP1;P1;durP2;ratioP2;P2;SDS_P1;SDS_P2;PMS_P1;PMS_P2;Temp;Humidity;BMP_temperature;BMP_pressure;BME280_temperature;BME280_humidity;BME280_pressure;Samples;Min_cycle;Max_cycle;Signal;HPM_P1;HPM_P2
2022/03/02 00:01:52;;;;;;;16.48;10.55;;;;;;;8.95;47.46;100915.84;5111706;28;20088;-64
2022/03/02 00:04:19;;;;;;;14.75;9.57;;;;;;;8.95;47.53;100914.09;5111394;28;20059;-63
2022/03/02 00:06:47;;;;;;;17.13;10.45;;;;;;;8.94;47.42;100909.72;5110492;28;20056;-62
2022/03/02 00:09:14;;;;;;;15.10;10.18;;;;;;;8.95;47.32;100911.47;5110471;28;20055;-63
2022/03/02 00:11:41;;;;;;;17.85;10.13;;;;;;;8.95;47.16;100907.97;5111632;28;20051;-62
2022/03/02 00:14:07;;;;;;;14.70;9.38;;;;;;;8.95;47.14;100910.59;5111725;28;20381;-62
2022/03/02 00:16:35;;;;;;;14.35;9.63;;;;;;;8.94;47.10;100917.59;5110767;28;20463;-63
2022/03/02 00:19:03;;;;;;;17.58;9.88;;;;;;;8.94;47.32;100916.75;5110300;28;20453;-62
2022/03/02 00:21:30;;;;;;;15.57;9.75;;;;;;;8.93;47.36;100917.69;5110400;28;20442;-62
2022/03/02 00:23:57;;;;;;;13.10;8.80;;;;;;;8.92;47.00;100906.31;5110545;28;20056;-62
2022/03/02 00:26:23;;;;;;;16.15;10.20;;;;;;;8.93;47.11;100907.16;5111123;28;20043;-61
2022/03/02 00:28:50;;;;;;;14.43;9.65;;;;;;;8.92;47.21;100903.66;5111821;28;20496;-64
2022/03/02 00:31:17;;;;;;;16.30;10.30;;;;;;;8.91;47.06;100907.22;5111142;28;20040;-62
2022/03/02 00:33:43;;;;;;;15.10;10.00;;;;;;;8.88;47.04;100907.31;5111241;28;20105;-63
2022/03/02 00:36:10;;;;;;;14.05;9.02;;;;;;;8.86;46.90;100904.72;5110974;28;20561;-63
2022/03/02 00:38:37;;;;;;;14.63;9.73;;;;;;;8.84;47.37;100910.94;5111182;28;20115;-62
2022/03/02 00:41:04;;;;;;;15.13;9.65;;;;;;;8.83;46.97;100909.22;5110679;28;20556;-62
2022/03/02 00:43:31;;;;;;;15.43;9.63;;;;;;;8.82;47.10;100910.97;5111307;28;20051;-62
2022/03/02 00:45:57;;;;;;;14.95;9.73;;;;;;;8.79;47.07;100908.44;5110646;28;20035;-61
2022/03/02 00:48:24;;;;;;;15.65;10.18;;;;;;;8.77;47.33;100905.00;5111015;28;20642;-61
2022/03/02 00:50:51;;;;;;;14.35;9.55;;;;;;;8.76;47.23;100910.31;5110585;28;20052;-62
2022/03/02 00:53:18;;;;;;;15.13;9.35;;;;;;;8.76;47.44;100899.81;5110855;28;20067;-62
2022/03/02 00:55:45;;;;;;;18.80;10.43;;;;;;;8.73;47.37;100898.13;5109495;28;20085;-63
2022/03/02 00:58:11;;;;;;;18.17;10.95;;;;;;;8.71;47.78;100887.69;5109337;28;20450;-62
2022/03/02 01:00:38;;;;;;;16.48;10.25;;;;;;;8.70;47.88;100885.97;5110398;28;20557;-62
2022/03/02 01:03:05;;;;;;;14.75;9.95;;;;;;;8.69;48.17;100886.88;5109159;28;20051;-62
2022/03/02 01:05:32;;;;;;;17.77;11.05;;;;;;;8.68;48.12;100887.75;5110878;28;20089;-62
2022/03/02 01:07:59;;;;;;;16.60;11.15;;;;;;;8.68;48.33;100881.66;5109478;28;20059;-63
2022/03/02 01:10:25;;;;;;;18.98;11.30;;;;;;;8.66;48.01;100878.22;5110306;28;20047;-63
2022/03/02 01:12:52;;;;;;;17.95;11.75;;;;;;;8.65;47.86;100873.88;5109175;28;20055;-62
2022/03/02 01:15:20;;;;;;;19.98;12.32;;;;;;;8.62;47.88;100877.47;5110515;28;20043;-62
2022/03/02 01:17:46;;;;;;;18.77;12.10;;;;;;;8.57;48.25;100871.50;5111130;28;20487;-62
2022/03/02 01:20:13;;;;;;;21.40;13.07;;;;;;;8.51;48.02;100867.25;5110749;28;20039;-62
2022/03/02 01:22:40;;;;;;;19.17;12.73;;;;;;;8.46;48.44;100861.31;5109623;28;20085;-65
2022/03/02 01:25:09;;;;;;;20.50;12.90;;;;;;;8.41;48.70;100860.59;5110639;28;20044;-62
2022/03/02 01:27:36;;;;;;;20.48;12.48;;;;;;;8.39;49.27;100863.25;5109829;28;20077;-62
2022/03/02 01:30:05;;;;;;;20.25;12.63;;;;;;;8.38;48.91;100863.28;5110406;28;20661;-64
2022/03/02 01:32:32;;;;;;;20.38;12.77;;;;;;;8.38;48.96;100851.06;5110832;28;20052;-62
2022/03/02 01:34:59;;;;;;;20.27;13.00;;;;;;;8.37;48.88;100844.06;5110462;28;20097;-62
2022/03/02 01:37:25;;;;;;;20.85;13.00;;;;;;;8.37;49.17;100841.44;5110965;28;20051;-63
2022/03/02 01:39:52;;;;;;;21.17;13.23;;;;;;;8.35;48.90;100841.47;5110694;28;20087;-62
2022/03/02 01:42:18;;;;;;;21.95;13.07;;;;;;;8.33;49.08;100839.81;5109497;28;20044;-61
2022/03/02 01:44:45;;;;;;;19.35;12.68;;;;;;;8.31;49.06;100845.13;5112373;28;20047;-61
2022/03/02 01:47:12;;;;;;;21.35;13.23;;;;;;;8.29;49.05;100840.81;5114498;28;20087;-65
2022/03/02 01:49:39;;;;;;;19.83;11.85;;;;;;;8.28;49.16;100836.47;5114225;28;20081;-62
2022/03/02 01:52:05;;;;;;;24.05;12.05;;;;;;;8.26;49.17;100836.50;5114556;28;20169;-62
2022/03/02 01:54:32;;;;;;;21.05;13.15;;;;;;;8.24;49.14;100832.22;5114339;28;20059;-62
2022/03/02 01:56:59;;;;;;;21.30;14.02;;;;;;;8.20;48.93;100836.72;5092685;28;20101;-62
2022/03/02 01:59:25;;;;;;;19.80;12.63;;;;;;;8.17;48.88;100839.41;5093641;28;20485;-61
2022/03/02 02:01:52;;;;;;;22.83;12.95;;;;;;;8.13;49.06;100828.16;5093487;28;20167;-64
2022/03/02 02:04:19;;;;;;;23.35;14.15;;;;;;;8.07;49.02;100823.94;5093781;28;20054;-62
2022/03/02 02:06:46;;;;;;;23.55;13.57;;;;;;;8.04;48.88;100825.81;5112599;28;20047;-62
2022/03/02 02:09:12;;;;;;;20.25;13.13;;;;;;;7.99;49.15;100825.94;5113983;28;20054;-62
2022/03/02 02:11:39;;;;;;;22.05;13.32;;;;;;;7.95;49.19;100827.81;5113986;28;20090;-62
2022/03/02 02:14:06;;;;;;;20.77;12.80;;;;;;;7.91;49.03;100818.31;5112823;28;20122;-63
2022/03/02 02:16:32;;;;;;;20.23;12.55;;;;;;;7.87;48.94;100815.78;5113654;27;20499;-63
2022/03/02 02:18:59;;;;;;;19.58;12.63;;;;;;;7.84;48.84;100808.88;5113779;28;20047;-63
2022/03/02 02:21:27;;;;;;;19.60;12.48;;;;;;;7.80;48.93;100812.50;5113746;28;20097;-61
2022/03/02 02:23:54;;;;;;;22.15;13.30;;;;;;;7.75;48.92;100809.16;5113902;28;20048;-62
2022/03/02 02:26:21;;;;;;;24.10;12.52;;;;;;;7.69;48.57;100818.91;5113449;28;20044;-62
2022/03/02 02:28:50;;;;;;;21.25;12.18;;;;;;;7.63;48.66;100813.81;5113760;28;20097;-63
2022/03/02 02:31:17;;;;;;;19.88;12.40;;;;;;;7.59;49.14;100808.72;5112091;28;20044;-61
2022/03/02 02:33:44;;;;;;;20.67;12.27;;;;;;;7.55;48.71;100805.31;5113754;28;20058;-63
2022/03/02 02:36:12;;;;;;;22.88;13.25;;;;;;;7.50;48.63;100801.97;5113427;28;20051;-65
2022/03/02 02:38:38;;;;;;;19.23;11.77;;;;;;;7.46;48.79;100803.81;5113393;28;20047;-61
2022/03/02 02:41:05;;;;;;;19.70;12.13;;;;;;;7.40;48.64;100801.38;5113419;28;20104;-64
2022/03/02 02:43:31;;;;;;;18.85;11.73;;;;;;;7.34;48.59;100799.78;5113384;28;20043;-62
2022/03/02 02:45:58;;;;;;;19.30;11.25;;;;;;;7.28;48.91;100798.16;5113021;28;20040;-62
2022/03/02 02:48:25;;;;;;;16.52;11.57;;;;;;;7.22;48.86;100795.69;5113216;28;20516;-63
2022/03/02 02:50:52;;;;;;;17.90;11.73;;;;;;;7.15;48.93;100797.63;5113163;28;20052;-63
2022/03/02 02:53:20;;;;;;;21.98;11.50;;;;;;;7.08;48.72;100803.06;5112036;28;20043;-61
2022/03/02 02:55:47;;;;;;;18.38;11.18;;;;;;;7.00;48.82;100803.25;5112483;28;20454;-62
2022/03/02 02:58:14;;;;;;;18.00;11.05;;;;;;;6.91;48.96;100797.34;5111952;28;20048;-62
2022/03/02 03:00:44;;;;;;;16.75;10.88;;;;;;;6.84;48.96;100808.88;5112558;28;20496;-63
2022/03/02 03:03:11;;;;;;;19.95;10.88;;;;;;;6.78;48.83;100803.78;5111979;28;20067;-61
2022/03/02 03:05:38;;;;;;;18.80;10.88;;;;;;;6.72;49.06;100796.94;5112844;28;20085;-62
2022/03/02 03:08:10;;;;;;;18.67;11.00;;;;;;;6.67;49.00;100804.06;5112867;28;20477;-61
2022/03/02 03:10:38;;;;;;;17.23;10.75;;;;;;;6.64;48.78;100802.38;5112776;28;20449;-62
2022/03/02 03:13:05;;;;;;;18.52;11.68;;;;;;;6.60;49.21;100798.09;5111474;28;20567;-62
2022/03/02 03:15:32;;;;;;;18.73;10.77;;;;;;;6.59;49.34;100788.53;5112557;28;20101;-64
2022/03/02 03:17:58;;;;;;;14.60;9.70;;;;;;;6.57;49.19;100782.47;5112823;28;20547;-61
2022/03/02 03:20:26;;;;;;;17.45;10.50;;;;;;;6.56;49.28;100778.16;5112584;28;20075;-63
2022/03/02 03:22:55;;;;;;;17.60;10.70;;;;;;;6.57;49.19;100785.09;5111380;28;20457;-61
2022/03/02 03:25:23;;;;;;;16.92;9.82;;;;;;;6.58;48.77;100785.97;5112178;28;20419;-62
2022/03/02 03:27:50;;;;;;;17.90;10.27;;;;;;;6.59;49.09;100783.31;5111590;28;20047;-61
2022/03/02 03:30:19;;;;;;;18.00;9.82;;;;;;;6.61;49.34;100776.28;5110883;28;20476;-62
2022/03/02 03:32:47;;;;;;;18.95;10.27;;;;;;;6.64;49.17;100778.81;5111460;28;20499;-62
2022/03/02 03:35:16;;;;;;;15.35;10.23;;;;;;;6.67;49.03;100777.00;5112080;28;20507;-62
2022/03/02 03:37:43;;;;;;;14.50;9.73;;;;;;;6.70;49.00;100780.44;5111354;28;20084;-62
2022/03/02 03:40:13;;;;;;;12.98;8.85;;;;;;;6.72;49.03;100777.75;5112044;28;20070;-62
2022/03/02 03:42:40;;;;;;;16.05;9.30;;;;;;;6.76;48.76;100774.16;5112425;28;20096;-63
2022/03/02 03:45:08;;;;;;;14.98;9.35;;;;;;;6.77;48.74;100775.91;5112138;28;20055;-62
2022/03/02 03:47:35;;;;;;;14.68;9.52;;;;;;;6.80;48.88;100781.03;5110790;28;20131;-62
2022/03/02 03:50:03;;;;;;;15.05;9.25;;;;;;;6.83;48.60;100774.88;5111787;28;20348;-62
2022/03/02 03:52:30;;;;;;;14.50;9.60;;;;;;;6.85;48.43;100779.19;5110926;28;20047;-63
2022/03/02 03:54:56;;;;;;;13.93;9.15;;;;;;;6.87;48.64;100777.38;5112250;27;20052;-63
2022/03/02 03:57:23;;;;;;;14.82;9.45;;;;;;;6.89;48.41;100772.13;5111768;28;20492;-62
2022/03/02 03:59:50;;;;;;;14.95;9.30;;;;;;;6.91;48.68;100770.31;5111649;28;20549;-62
2022/03/02 04:02:17;;;;;;;15.85;9.25;;;;;;;6.94;48.36;100767.63;5111434;28;20055;-61
2022/03/02 04:04:43;;;;;;;15.88;9.38;;;;;;;6.94;48.47;100762.38;5111604;28;20104;-63
2022/03/02 04:07:10;;;;;;;15.70;9.77;;;;;;;6.95;48.49;100764.09;5111423;28;20047;-62
2022/03/02 04:09:37;;;;;;;17.33;9.63;;;;;;;6.97;48.53;100764.06;5111644;28;20050;-62
2022/03/02 04:12:04;;;;;;;15.57;9.68;;;;;;;6.98;48.61;100765.78;5111750;28;20105;-62
2022/03/02 04:14:31;;;;;;;14.05;8.95;;;;;;;6.98;48.32;100757.91;5110188;28;20179;-63
2022/03/02 04:16:57;;;;;;;13.15;9.20;;;;;;;6.98;48.26;100757.91;5111489;28;20412;-61
2022/03/02 04:19:24;;;;;;;15.77;10.20;;;;;;;6.97;48.57;100750.97;5111397;28;20055;-63
2022/03/02 04:21:51;;;;;;;16.27;9.25;;;;;;;6.97;48.14;100753.59;5111426;28;20104;-62
2022/03/02 04:24:17;;;;;;;13.57;8.45;;;;;;;6.96;48.08;100742.28;5111251;28;20104;-63
2022/03/02 04:26:44;;;;;;;15.55;9.25;;;;;;;6.96;48.08;100739.66;5111541;28;20579;-62
2022/03/02 04:29:10;;;;;;;16.38;9.35;;;;;;;6.96;48.31;100738.78;5111108;28;20105;-62
2022/03/02 04:31:37;;;;;;;16.02;9.07;;;;;;;6.96;47.97;100744.91;5111295;28;20130;-61
2022/03/02 04:34:04;;;;;;;12.85;8.55;;;;;;;6.96;48.29;100752.75;5110870;28;20443;-62
2022/03/02 04:36:30;;;;;;;14.52;9.00;;;;;;;6.95;48.00;100742.31;5111342;28;20047;-62
2022/03/02 04:38:58;;;;;;;13.55;8.98;;;;;;;6.93;48.14;100744.09;5111151;28;20051;-62
2022/03/02 04:41:24;;;;;;;16.20;8.73;;;;;;;6.92;48.05;100743.25;5111057;28;20050;-62
2022/03/02 04:43:51;;;;;;;16.00;8.82;;;;;;;6.91;47.85;100742.38;5110992;28;20094;-62
2022/03/02 04:46:18;;;;;;;13.77;8.93;;;;;;;6.90;47.91;100739.81;5111135;28;20044;-63
2022/03/02 04:48:45;;;;;;;17.10;8.85;;;;;;;6.90;48.06;100740.69;5111116;28;20047;-62
2022/03/02 04:51:11;;;;;;;14.90;9.10;;;;;;;6.90;48.28;100740.69;5111172;28;20055;-62
2022/03/02 04:53:38;;;;;;;15.32;8.93;;;;;;;6.89;47.89;100738.94;5110806;28;20488;-63
2022/03/02 04:56:05;;;;;;;13.13;8.18;;;;;;;6.91;48.03;100746.75;5109856;28;20048;-62
2022/03/02 04:58:31;;;;;;;14.63;8.85;;;;;;;6.89;47.79;100738.94;5110930;28;20087;-62
2022/03/02 05:00:58;;;;;;;16.15;8.30;;;;;;;6.88;48.15;100736.38;5109466;28;20047;-63
2022/03/02 05:03:25;;;;;;;16.30;9.48;;;;;;;6.87;48.08;100732.91;5110570;28;20067;-62
2022/03/02 05:05:52;;;;;;;14.70;9.27;;;;;;;6.86;48.23;100732.94;5111122;28;20130;-62
2022/03/02 05:08:18;;;;;;;16.15;9.48;;;;;;;6.85;47.78;100729.47;5110972;28;20083;-62
2022/03/02 05:10:45;;;;;;;16.92;8.95;;;;;;;6.86;48.04;100739.03;5110457;28;20411;-62
2022/03/02 05:13:11;;;;;;;15.20;9.55;;;;;;;6.84;47.62;100732.97;5109440;28;20044;-62
2022/03/02 05:15:38;;;;;;;18.02;9.40;;;;;;;6.83;47.49;100739.09;5110397;28;20074;-63
2022/03/02 05:18:05;;;;;;;16.15;9.13;;;;;;;6.82;48.03;100737.41;5111570;28;20051;-63
2022/03/02 05:20:31;;;;;;;15.55;9.20;;;;;;;6.82;47.70;100728.66;5115157;28;20044;-61
2022/03/02 05:22:58;;;;;;;17.55;9.30;;;;;;;6.83;47.87;100725.16;5114935;28;20051;-62
2022/03/02 05:25:25;;;;;;;17.85;9.35;;;;;;;6.83;47.59;100710.31;5114515;28;20125;-64
2022/03/02 05:27:51;;;;;;;17.02;10.00;;;;;;;6.83;47.67;100709.44;5114779;28;20051;-62
2022/03/02 05:30:19;;;;;;;15.27;9.23;;;;;;;6.82;47.47;100711.22;5114714;28;20125;-61
2022/03/02 05:32:46;;;;;;;17.92;10.07;;;;;;;6.81;47.48;100717.38;5113362;28;20062;-63
2022/03/02 05:35:13;;;;;;;17.88;10.68;;;;;;;6.81;47.47;100719.13;5114622;28;20039;-62
2022/03/02 05:37:42;;;;;;;15.23;9.13;;;;;;;6.79;47.60;100724.38;5114814;27;20055;-62
2022/03/02 05:40:15;;;;;;;14.98;9.50;;;;;;;6.76;47.19;100722.72;5114719;28;20056;-62
2022/03/02 05:42:48;;;;;;;13.60;8.40;;;;;;;6.77;47.95;100718.34;5114313;28;20048;-63
2022/03/02 05:45:15;;;;;;;15.48;9.55;;;;;;;6.78;47.84;100718.28;5112826;28;20474;-63
2022/03/02 05:47:41;;;;;;;15.55;9.38;;;;;;;6.78;47.87;100709.59;5114111;27;20057;-62
2022/03/02 05:50:09;;;;;;;14.68;9.13;;;;;;;6.77;48.14;100707.88;5114575;28;20111;-63
2022/03/02 05:52:36;;;;;;;17.30;9.43;;;;;;;6.77;48.32;100710.50;5114045;28;20116;-62
2022/03/02 05:55:04;;;;;;;17.27;10.07;;;;;;;6.77;48.31;100705.25;5113084;28;20104;-62
2022/03/02 05:57:31;;;;;;;18.00;10.45;;;;;;;6.75;48.23;100712.28;5114077;28;20051;-63
2022/03/02 05:59:57;;;;;;;15.95;10.05;;;;;;;6.73;48.20;100707.06;5114257;28;20056;-63
2022/03/02 06:02:24;;;;;;;19.80;10.02;;;;;;;6.71;48.22;100715.88;5114098;28;20073;-62
2022/03/02 06:04:50;;;;;;;21.08;9.65;;;;;;;6.67;48.46;100715.09;5113719;28;20503;-62
2022/03/02 06:07:17;;;;;;;20.02;10.02;;;;;;;6.64;48.34;100712.53;5114053;28;20044;-62
2022/03/02 06:09:44;;;;;;;16.70;10.13;;;;;;;6.61;48.38;100716.09;5114090;28;20052;-63
2022/03/02 06:12:12;;;;;;;16.60;9.80;;;;;;;6.57;48.17;100722.31;5114070;28;20465;-62
2022/03/02 06:14:38;;;;;;;14.80;9.38;;;;;;;6.54;48.49;100727.59;5113663;28;20040;-62
2022/03/02 06:17:06;;;;;;;16.90;10.20;;;;;;;6.50;48.54;100725.97;5114449;28;20086;-62
2022/03/02 06:19:33;;;;;;;16.33;10.30;;;;;;;6.47;48.35;100723.44;5112407;28;20048;-62
2022/03/02 06:22:02;;;;;;;19.08;10.30;;;;;;;6.42;48.29;100725.31;5114046;28;20488;-63
2022/03/02 06:24:31;;;;;;;17.17;10.10;;;;;;;6.37;48.25;100726.28;5113406;28;20052;-63
2022/03/02 06:26:58;;;;;;;19.50;10.80;;;;;;;6.32;48.44;100727.28;5112359;28;20095;-63
2022/03/02 06:29:24;;;;;;;18.90;10.70;;;;;;;6.25;48.16;100729.19;5111026;28;20063;-63
2022/03/02 06:31:51;;;;;;;16.95;10.10;;;;;;;6.19;48.36;100731.91;5113035;28;20043;-63
2022/03/02 06:34:18;;;;;;;15.35;10.32;;;;;;;6.11;48.22;100729.50;5113523;28;20094;-63
2022/03/02 06:36:49;;;;;;;19.77;10.10;;;;;;;6.03;48.30;100736.59;5113652;28;20055;-63
2022/03/02 06:39:20;;;;;;;19.15;11.15;;;;;;;5.95;48.44;100739.41;5113077;28;20043;-63
2022/03/02 06:42:11;;;;;;;17.55;10.57;;;;;;;5.84;48.67;100737.84;5113665;28;20096;-63
2022/03/02 06:44:53;;;;;;;15.73;9.90;;;;;;;5.79;48.89;100746.72;5113033;28;20075;-63
2022/03/02 06:47:25;;;;;;;15.27;9.60;;;;;;;5.75;49.02;100751.13;5112974;28;20553;-62
2022/03/02 06:50:07;;;;;;;23.73;10.18;;;;;;;5.69;49.47;100751.25;5112480;28;20380;-63
2022/03/02 06:52:36;;;;;;;17.05;9.80;;;;;;;5.69;49.70;100743.41;5113101;28;20537;-62
2022/03/02 06:55:06;;;;;;;19.00;10.25;;;;;;;5.68;49.89;100739.94;5111733;28;20047;-63
2022/03/02 06:57:34;;;;;;;20.75;10.88;;;;;;;5.67;50.02;100737.34;5113180;28;20058;-63
2022/03/02 07:00:16;;;;;;;19.73;11.80;;;;;;;5.63;50.08;100733.09;5111131;28;20047;-62
2022/03/02 07:03:01;;;;;;;20.40;11.70;;;;;;;5.60;49.79;100736.63;5112669;28;20048;-63
2022/03/02 07:05:28;;;;;;;18.92;11.05;;;;;;;5.64;50.03;100732.22;5112749;28;20089;-63
2022/03/02 07:07:55;;;;;;;17.98;11.23;;;;;;;5.62;50.10;100727.03;5112926;28;20077;-64
2022/03/02 07:10:21;;;;;;;19.90;11.35;;;;;;;5.62;50.22;100734.84;5112611;28;20096;-63
2022/03/02 07:12:48;;;;;;;21.33;11.20;;;;;;;5.61;50.05;100723.53;5112555;28;20113;-64
2022/03/02 07:15:15;;;;;;;17.88;11.95;;;;;;;5.63;50.14;100733.09;5112872;28;20116;-62
2022/03/02 07:17:41;;;;;;;19.13;11.55;;;;;;;5.61;50.35;100733.97;5112469;28;20416;-63
2022/03/02 07:20:10;;;;;;;18.05;11.20;;;;;;;5.62;50.27;100734.84;5111803;28;20052;-63
2022/03/02 07:22:43;;;;;;;18.98;11.63;;;;;;;5.63;50.53;100731.34;5111384;28;20557;-62
2022/03/02 07:25:17;;;;;;;19.63;10.73;;;;;;;5.64;50.13;100732.22;5112354;28;20062;-63
2022/03/02 07:27:43;;;;;;;19.27;9.88;;;;;;;5.68;50.34;100733.88;5111527;28;20066;-63
2022/03/02 07:30:11;;;;;;;15.80;10.05;;;;;;;5.71;50.31;100739.00;5111942;28;20043;-63
2022/03/02 07:32:41;;;;;;;15.60;10.23;;;;;;;5.74;50.52;100746.78;5110826;28;20101;-64
2022/03/02 07:35:08;;;;;;;22.38;11.32;;;;;;;5.79;50.47;100750.16;5112101;28;20093;-63
2022/03/02 07:37:36;;;;;;;17.65;10.52;;;;;;;5.83;50.25;100750.97;5112355;28;20051;-64
2022/03/02 07:40:04;;;;;;;16.08;9.32;;;;;;;5.87;50.39;100756.09;5112057;28;20468;-67
2022/03/02 07:42:34;;;;;;;19.75;11.45;;;;;;;5.92;50.52;100758.63;5111248;28;20105;-63
2022/03/02 07:45:00;;;;;;;17.50;10.45;;;;;;;5.99;50.40;100748.88;5112079;28;20105;-63
2022/03/02 07:47:27;;;;;;;22.08;11.45;;;;;;;6.03;50.26;100747.97;5112149;28;20125;-65
2022/03/02 07:49:53;;;;;;;19.60;11.18;;;;;;;6.08;50.44;100748.72;5111818;28;20047;-65
2022/03/02 07:52:24;;;;;;;18.73;11.35;;;;;;;6.11;50.09;100747.78;5111857;28;20552;-63
2022/03/02 07:54:58;;;;;;;19.92;11.55;;;;;;;6.14;50.18;100745.13;5111805;28;20560;-63
2022/03/02 07:57:28;;;;;;;19.38;11.55;;;;;;;6.19;50.48;100745.00;5110805;28;20058;-62
2022/03/02 07:59:57;;;;;;;18.45;11.55;;;;;;;6.21;50.59;100744.06;5110466;28;20077;-63
2022/03/02 08:02:25;;;;;;;20.88;12.43;;;;;;;6.25;50.46;100742.25;5112067;28;20043;-63
2022/03/02 08:04:53;;;;;;;18.05;11.27;;;;;;;6.28;50.66;100741.31;5110121;28;20497;-64
2022/03/02 08:07:21;;;;;;;17.67;11.07;;;;;;;6.31;50.47;100741.25;5111813;28;20069;-64
2022/03/02 08:09:51;;;;;;;20.50;10.93;;;;;;;6.34;50.36;100744.66;5111463;28;20104;-62
2022/03/02 08:12:21;;;;;;;17.73;10.30;;;;;;;6.37;50.05;100741.97;5111843;28;20109;-63
2022/03/02 08:14:49;;;;;;;15.68;9.90;;;;;;;6.43;50.42;100740.09;5109997;28;20527;-62
2022/03/02 08:17:17;;;;;;;15.65;9.73;;;;;;;6.47;50.26;100732.13;5110225;28;20098;-62
2022/03/02 08:19:46;;;;;;;15.07;9.38;;;;;;;6.54;49.97;100742.47;5109977;28;20670;-64
2022/03/02 08:22:21;;;;;;;18.23;10.55;;;;;;;6.58;49.71;100742.31;5110113;28;20100;-64
2022/03/02 08:25:07;;;;;;;17.17;9.90;;;;;;;6.62;49.27;100741.34;5110996;27;20047;-62
2022/03/02 08:27:34;;;;;;;14.60;9.30;;;;;;;6.72;49.75;100736.75;5110042;28;20488;-62
2022/03/02 08:30:05;;;;;;;15.13;9.32;;;;;;;6.76;49.39;100729.69;5111091;28;20465;-63
2022/03/02 08:32:39;;;;;;;15.15;9.38;;;;;;;6.80;49.04;100723.47;5111358;28;20476;-63
2022/03/02 08:35:06;;;;;;;16.05;10.07;;;;;;;6.88;49.37;100718.06;5109784;28;20089;-63
2022/03/02 08:37:34;;;;;;;16.17;9.60;;;;;;;6.93;49.25;100720.53;5111195;28;20101;-64
2022/03/02 08:40:01;;;;;;;15.43;9.60;;;;;;;6.99;49.69;100717.78;5110666;28;20562;-64
2022/03/02 08:42:27;;;;;;;15.10;9.50;;;;;;;7.04;49.55;100718.50;5111057;28;20043;-63
2022/03/02 08:44:55;;;;;;;16.17;9.77;;;;;;;7.10;49.43;100720.94;5110987;28;20051;-64
2022/03/02 08:47:25;;;;;;;13.00;8.20;;;;;;;7.18;48.81;100712.91;5111340;28;20479;-64
2022/03/02 08:49:54;;;;;;;14.98;9.43;;;;;;;7.26;48.82;100712.69;5110965;28;20052;-62
2022/03/02 08:52:25;;;;;;;14.40;8.55;;;;;;;7.32;47.89;100724.75;5110759;28;20055;-63
2022/03/02 08:54:54;;;;;;;14.68;8.73;;;;;;;7.40;48.37;100721.00;5110701;28;20568;-62
2022/03/02 08:57:21;;;;;;;14.88;8.35;;;;;;;7.48;48.38;100720.78;5109539;28;20047;-62
2022/03/02 08:59:52;;;;;;;13.95;9.00;;;;;;;7.55;48.02;100722.34;5109615;28;20074;-63
2022/03/02 09:02:21;;;;;;;12.48;8.25;;;;;;;7.64;48.48;100729.09;5109385;28;20047;-63
2022/03/02 09:04:50;;;;;;;13.32;8.27;;;;;;;7.72;48.60;100717.50;5110593;28;20078;-62
2022/03/02 09:07:18;;;;;;;14.65;8.75;;;;;;;7.79;48.18;100716.44;5110578;28;20508;-63
2022/03/02 09:09:45;;;;;;;13.60;8.57;;;;;;;7.87;48.45;100714.44;5109596;28;20051;-62
2022/03/02 09:12:15;;;;;;;14.10;8.57;;;;;;;7.93;47.99;100718.63;5109579;28;20055;-62
2022/03/02 09:14:42;;;;;;;16.75;9.57;;;;;;;8.01;48.20;100718.41;5109385;28;20574;-64
2022/03/02 09:17:09;;;;;;;14.82;8.60;;;;;;;8.06;48.02;100719.97;5110371;28;20075;-62
2022/03/02 09:19:37;;;;;;;13.75;8.32;;;;;;;8.13;47.89;100712.78;5110508;28;20067;-63
2022/03/02 09:22:04;;;;;;;13.00;8.07;;;;;;;8.20;48.02;100716.94;5110435;28;20051;-63
2022/03/02 09:24:31;;;;;;;13.85;8.68;;;;;;;8.27;48.10;100714.09;5110528;28;20479;-63
2022/03/02 09:26:59;;;;;;;14.32;8.73;;;;;;;8.33;47.80;100717.38;5109437;28;20183;-63
2022/03/02 09:29:31;;;;;;;15.85;8.68;;;;;;;8.38;47.18;100719.88;5110217;28;20446;-63
2022/03/02 09:31:58;;;;;;;16.25;8.13;;;;;;;8.47;47.49;100719.56;5110622;28;20052;-62
2022/03/02 09:34:27;;;;;;;16.67;8.20;;;;;;;8.55;47.44;100728.97;5110192;28;20416;-62
2022/03/02 09:36:55;;;;;;;21.33;8.70;;;;;;;8.61;47.52;100723.53;5110361;28;20108;-64
2022/03/02 09:39:23;;;;;;;14.55;8.20;;;;;;;8.68;47.59;100722.41;5110361;28;20101;-64
2022/03/02 09:41:58;;;;;;;13.75;8.38;;;;;;;8.74;47.14;100721.34;5110537;28;20051;-63
2022/03/02 09:44:31;;;;;;;13.20;8.80;;;;;;;8.80;46.52;100726.41;5110628;28;20051;-63
2022/03/02 09:46:59;;;;;;;;;;;;;;;8.88;47.10;100720.00;5109510;28;20051;-63
2022/03/02 09:49:29;;;;;;;12.48;7.78;;;;;;;8.96;46.51;100718.84;5110461;28;19919;-64
2022/03/02 09:52:09;;;;;;;13.10;7.95;;;;;;;8.98;46.37;100722.25;5109564;28;20108;-64
2022/03/02 09:54:37;;;;;;;14.95;8.43;;;;;;;9.04;47.16;100718.56;5110867;28;20134;-65
2022/03/02 09:57:07;;;;;;;11.73;7.97;;;;;;;9.08;46.15;100721.97;5110657;28;20493;-63
2022/03/02 09:59:37;;;;;;;12.38;7.75;;;;;;;9.15;46.10;100726.06;5108865;28;20080;-63
2022/03/02 10:02:07;;;;;;;13.35;8.20;;;;;;;9.21;45.85;100720.63;5110579;28;20044;-63
2022/03/02 10:04:35;;;;;;;18.15;8.10;;;;;;;9.30;46.46;100721.19;5110465;28;20056;-63
2022/03/02 10:10:04;;;;;;;12.10;8.07;;;;;;;9.44;45.43;100713.66;5113783;28;20085;-64
2022/03/02 10:12:33;;;;;;;11.02;7.68;;;;;;;9.57;46.43;100713.22;5114130;28;20449;-63
2022/03/02 10:15:01;;;;;;;12.77;7.90;;;;;;;9.64;46.20;100712.91;5113916;28;20113;-64
2022/03/02 10:17:34;;;;;;;10.60;7.85;;;;;;;9.72;45.20;100711.78;5112384;28;20036;-64
2022/03/02 10:20:11;;;;;;;15.52;8.15;;;;;;;9.83;45.31;100706.09;5114022;28;20530;-64
2022/03/02 10:22:40;;;;;;;11.20;7.38;;;;;;;9.90;44.81;100695.28;5112734;28;20097;-64
2022/03/02 10:25:14;;;;;;;14.20;8.02;;;;;;;9.98;44.69;100697.59;5113528;28;20087;-65
2022/03/02 10:28:00;;;;;;;13.27;8.30;;;;;;;10.06;44.58;100693.81;5112105;28;20047;-64
2022/03/02 10:30:32;;;;;;;14.00;7.95;;;;;;;10.20;45.15;100686.22;5113534;28;20052;-64
2022/03/02 10:33:21;;;;;;;10.23;7.57;;;;;;;10.29;44.83;100685.00;5113672;28;20052;-63
2022/03/02 10:36:04;;;;;;;14.30;8.00;;;;;;;10.41;44.67;100679.25;5113288;28;20438;-64
2022/03/02 10:38:48;;;;;;;12.20;7.93;;;;;;;10.57;45.11;100683.03;5112300;28;20096;-63
2022/03/02 10:41:14;;;;;;;11.23;6.68;;;;;;;10.73;45.36;100683.25;5113410;28;20495;-63
2022/03/02 10:43:48;;;;;;;12.50;8.00;;;;;;;10.84;43.75;100677.50;5113699;28;20051;-62
2022/03/02 10:46:20;;;;;;;12.52;7.45;;;;;;;10.96;44.05;100684.88;5113357;28;20055;-63
2022/03/02 10:49:05;;;;;;;10.13;6.70;;;;;;;11.07;43.67;100671.25;5113302;28;20100;-62
2022/03/02 10:51:34;;;;;;;11.57;7.30;;;;;;;11.22;44.43;100674.97;5111881;28;20081;-63
2022/03/02 10:54:03;;;;;;;12.40;7.90;;;;;;;11.30;43.74;100678.13;5113065;28;20086;-63
2022/03/02 10:56:38;;;;;;;12.55;7.65;;;;;;;11.37;42.32;100683.97;5111741;28;20515;-63
2022/03/02 10:59:11;;;;;;;11.60;7.20;;;;;;;11.47;43.29;100685.25;5113188;28;20059;-62
2022/03/02 11:01:38;;;;;;;11.13;7.35;;;;;;;11.59;44.01;100682.97;5113143;28;20081;-63
2022/03/02 11:04:06;;;;;;;11.25;7.63;;;;;;;11.70;43.55;100683.31;5112932;28;20059;-63
2022/03/02 11:06:35;;;;;;;13.98;7.82;;;;;;;11.81;44.01;100688.09;5113140;28;20470;-63
2022/03/02 11:09:02;;;;;;;11.88;7.68;;;;;;;11.92;43.66;100687.56;5112968;28;20106;-63
2022/03/02 11:11:32;;;;;;;12.55;7.07;;;;;;;12.02;42.95;100688.00;5112754;27;20047;-64
2022/03/02 11:13:59;;;;;;;10.50;6.90;;;;;;;12.15;43.21;100683.00;5112404;28;20496;-66
2022/03/02 11:16:26;;;;;;;10.20;6.88;;;;;;;12.26;43.04;100677.19;5112714;28;20048;-63
2022/03/02 11:18:52;;;;;;;10.38;6.50;;;;;;;12.34;42.72;100682.13;5112760;28;20518;-63
2022/03/02 11:21:32;;;;;;;11.40;7.38;;;;;;;12.38;41.23;100673.09;5112493;28;20388;-64
2022/03/02 11:24:02;;;;;;;10.13;7.35;;;;;;;12.53;42.49;100665.34;5111146;28;20135;-64
2022/03/02 11:26:31;;;;;;;15.07;7.28;;;;;;;12.63;42.00;100661.28;5111495;28;20040;-64
2022/03/02 11:29:10;;;;;;;12.65;6.93;;;;;;;12.73;41.39;100659.91;5112271;28;20059;-64
2022/03/02 11:31:43;;;;;;;10.57;6.97;;;;;;;12.89;41.14;100656.44;5112906;28;20048;-63